Time;durP1;ratioP1;P1;durP2;ratioP2;P2;SDS_P1;SDS_P2;PMS_P1;PMS_P2;Temp;Humidity;BMP_temperature;BMP_pressure;BME280_temperature;BME280_humidity;BME280_pressure;Samples;Min_cycle;Max_cycle;Signal;HPM_P1;HPM_P2
2021/01/05 00:00:29;;;;;;;17.03;12.03;;;5.00;90.00;;;;;;5100443;28;20513;-79
2021/01/05 00:02:55;;;;;;;13.30;11.10;;;5.00;90.10;;;;;;5100086;28;20451;-80
2021/01/05 00:05:22;;;;;;;14.07;11.60;;;5.00;90.00;;;;;;5100126;28;20455;-79
2021/01/05 00:07:49;;;;;;;14.77;12.43;;;5.00;90.10;;;;;;5100424;28;20451;-79
2021/01/05 00:10:16;;;;;;;12.83;11.53;;;5.00;90.20;;;;;;5100081;28;20444;-79
2021/01/05 00:12:43;;;;;;;13.03;11.63;;;5.00;90.10;;;;;;5100531;28;20447;-79
2021/01/05 00:15:11;;;;;;;14.33;12.83;;;5.00;90.10;;;;;;5100574;28;20492;-79
2021/01/05 00:17:38;;;;;;;16.03;13.50;;;5.00;90.10;;;;;;5100485;28;20544;-79
2021/01/05 00:20:09;;;;;;;15.93;12.67;;;5.00;90.10;;;;;;5100344;28;20503;-79
2021/01/05 00:22:35;;;;;;;14.07;11.83;;;5.00;90.10;;;;;;5100740;28;20467;-79
2021/01/05 00:25:06;;;;;;;13.57;11.27;;;5.00;90.00;;;;;;5099825;28;20825;-79
2021/01/05 00:27:32;;;;;;;15.60;11.83;;;5.00;90.00;;;;;;5099630;28;20795;-79
2021/01/05 00:29:58;;;;;;;13.93;11.87;;;5.00;90.00;;;;;;5099865;28;20463;-79
2021/01/05 00:32:25;;;;;;;13.90;12.20;;;5.00;90.00;;;;;;5099286;28;20440;-79
2021/01/05 00:34:52;;;;;;;14.17;11.63;;;5.00;90.00;;;;;;5099660;28;20462;-79
2021/01/05 00:37:19;;;;;;;13.17;11.77;;;5.00;90.00;;;;;;5099380;28;20456;-79
2021/01/05 00:39:45;;;;;;;12.67;10.50;;;5.00;90.00;;;;;;5099520;28;20487;-79
2021/01/05 00:42:14;;;;;;;14.27;11.60;;;5.00;90.10;;;;;;5098844;28;20447;-79
2021/01/05 00:44:40;;;;;;;17.90;12.20;;;5.00;90.10;;;;;;5099127;28;20443;-79
2021/01/05 00:47:06;;;;;;;13.27;11.90;;;5.00;90.10;;;;;;5099813;28;20444;-79
2021/01/05 00:49:32;;;;;;;13.57;12.13;;;5.00;90.10;;;;;;5099481;28;20456;-79
2021/01/05 00:51:59;;;;;;;15.27;12.23;;;5.00;90.10;;;;;;5098931;28;20448;-79
2021/01/05 00:54:25;;;;;;;13.67;12.20;;;5.00;90.00;;;;;;5099401;28;20444;-79
2021/01/05 00:56:59;;;;;;;16.33;12.27;;;5.00;90.00;;;;;;5099067;28;20447;-79
2021/01/05 00:59:26;;;;;;;14.60;12.43;;;5.10;90.10;;;;;;5099598;28;20479;-79
2021/01/05 01:01:53;;;;;;;13.93;12.00;;;5.10;90.00;;;;;;5098861;28;20861;-79
2021/01/05 01:04:19;;;;;;;14.27;11.60;;;5.10;90.00;;;;;;5099055;28;20459;-79
2021/01/05 01:06:45;;;;;;;14.97;12.03;;;5.10;90.00;;;;;;5099049;28;20444;-79
2021/01/05 01:09:12;;;;;;;17.17;14.93;;;5.10;90.00;;;;;;5099009;28;20464;-79
2021/01/05 01:11:38;;;;;;;12.80;11.27;;;5.10;90.00;;;;;;5098950;28;20450;-79
2021/01/05 01:14:04;;;;;;;15.43;12.70;;;5.10;89.90;;;;;;5098999;28;20505;-79
2021/01/05 01:16:31;;;;;;;13.57;11.73;;;5.10;89.80;;;;;;5098873;28;20456;-79
2021/01/05 01:18:58;;;;;;;17.47;13.90;;;5.00;89.90;;;;;;5098845;28;20483;-79
2021/01/05 01:21:25;;;;;;;13.13;11.73;;;5.00;89.70;;;;;;5099427;28;20440;-79
2021/01/05 01:23:51;;;;;;;13.77;11.73;;;5.00;89.90;;;;;;5099249;28;20861;-79
2021/01/05 01:26:17;;;;;;;14.70;12.27;;;5.10;90.00;;;;;;5099019;28;20474;-79
2021/01/05 01:28:43;;;;;;;14.33;11.70;;;5.10;90.00;;;;;;5098996;28;20521;-79
2021/01/05 01:31:10;;;;;;;14.83;12.30;;;5.10;90.00;;;;;;5098910;28;20444;-79
2021/01/05 01:33:38;;;;;;;14.87;12.20;;;5.10;90.00;;;;;;5098704;28;20961;-78
2021/01/05 01:36:05;;;;;;;14.90;12.30;;;5.00;90.00;;;;;;5098735;28;20443;-79
2021/01/05 01:38:31;;;;;;;14.23;12.00;;;5.00;89.90;;;;;;5099258;28;20471;-79
2021/01/05 01:40:57;;;;;;;14.87;11.80;;;5.10;90.00;;;;;;5099155;28;20451;-79
2021/01/05 01:43:24;;;;;;;16.50;13.17;;;5.00;90.00;;;;;;5099263;28;20471;-79
2021/01/05 01:45:52;;;;;;;15.03;12.03;;;5.00;90.00;;;;;;5098706;28;20442;-79
2021/01/05 01:48:18;;;;;;;17.37;12.70;;;5.00;90.00;;;;;;5099156;28;20490;-79
2021/01/05 01:50:46;;;;;;;17.37;13.97;;;5.00;89.90;;;;;;5098350;28;20444;-79
2021/01/05 01:53:41;;;;;;;12.87;11.23;;;5.10;90.00;;;;;;5098597;28;20459;-79
2021/01/05 01:56:59;;;;;;;16.57;12.47;;;5.10;90.00;;;;;;5099079;28;20801;-79
2021/01/05 01:59:42;;;;;;;14.37;12.53;;;5.00;90.00;;;;;;5036168;28;20887;-79
2021/01/05 02:02:11;;;;;;;15.93;12.80;;;5.00;90.00;;;;;;5099669;28;20486;-79
2021/01/05 02:04:52;;;;;;;16.33;13.23;;;5.00;90.00;;;;;;5098077;28;20521;-79
2021/01/05 02:07:36;;;;;;;16.77;13.87;;;5.00;90.00;;;;;;5098705;28;20469;-79
2021/01/05 02:10:27;;;;;;;20.30;14.40;;;5.00;90.00;;;;;;5098219;28;20501;-80
2021/01/05 02:13:08;;;;;;;16.80;13.43;;;5.00;90.00;;;;;;5098283;28;20424;-79
2021/01/05 02:15:46;;;;;;;16.07;12.80;;;5.00;90.10;;;;;;5098542;28;20443;-79
2021/01/05 02:18:44;;;;;;;15.40;12.93;;;5.10;90.10;;;;;;5098302;28;20468;-79
2021/01/05 02:21:22;;;;;;;16.63;14.10;;;5.10;90.10;;;;;;5034964;28;20534;-79
2021/01/05 02:24:08;;;;;;;18.40;12.73;;;5.10;90.10;;;;;;5088938;28;20878;-79
2021/01/05 02:26:41;;;;;;;15.73;13.30;;;5.10;90.10;;;;;;5097997;28;20438;-80
2021/01/05 02:29:11;;;;;;;17.97;13.70;;;5.10;90.10;;;;;;5098323;28;20816;-79
2021/01/05 02:31:50;;;;;;;18.73;13.50;;;5.10;90.10;;;;;;5097848;28;20761;-79
2021/01/05 02:34:40;;;;;;;15.77;13.00;;;5.10;90.10;;;;;;5098141;28;20424;-80
2021/01/05 02:37:21;;;;;;;16.93;13.20;;;5.10;90.10;;;;;;5098284;28;20428;-79
2021/01/05 02:40:08;;;;;;;15.87;12.90;;;5.10;90.10;;;;;;5098041;28;20483;-79
2021/01/05 02:42:57;;;;;;;15.70;13.03;;;5.10;90.00;;;;;;5098143;28;20428;-79
2021/01/05 02:45:28;;;;;;;17.57;13.83;;;5.10;90.10;;;;;;5098232;28;20432;-79
2021/01/05 02:48:11;;;;;;;15.90;13.00;;;5.10;90.10;;;;;;5097297;28;20428;-79
2021/01/05 02:51:00;;;;;;;17.50;13.17;;;5.10;90.10;;;;;;5097682;28;20801;-80
2021/01/05 02:54:21;;;;;;;17.80;14.50;;;5.10;90.10;;;;;;5097654;28;20451;-79
2021/01/05 02:57:11;;;;;;;17.53;14.23;;;5.10;90.10;;;;;;5035128;28;20448;-80
2021/01/05 03:00:08;;;;;;;17.70;14.60;;;5.10;90.00;;;;;;5097746;28;20516;-80
2021/01/05 03:03:08;;;;;;;17.60;13.77;;;5.10;90.00;;;;;;5098202;28;20420;-79
2021/01/05 03:05:34;;;;;;;15.17;12.43;;;5.10;90.10;;;;;;5097437;28;20976;-79
2021/01/05 03:08:00;;;;;;;21.03;13.73;;;5.00;90.00;;;;;;5097965;28;20428;-80
2021/01/05 03:10:38;;;;;;;16.13;12.90;;;5.10;90.10;;;;;;5097845;28;20522;-79
2021/01/05 03:13:22;;;;;;;18.90;15.10;;;5.10;90.10;;;;;;5097987;28;20420;-79
2021/01/05 03:15:55;;;;;;;16.97;13.63;;;5.10;90.10;;;;;;5098021;28;20427;-79
2021/01/05 03:18:30;;;;;;;16.47;13.47;;;5.10;90.00;;;;;;5099755;28;20463;-79
2021/01/05 03:21:00;;;;;;;17.77;13.80;;;5.10;90.00;;;;;;5099858;28;20474;-79
2021/01/05 03:23:29;;;;;;;18.10;13.93;;;5.00;89.90;;;;;;5100206;28;20440;-79
2021/01/05 03:25:56;;;;;;;17.20;15.13;;;5.00;90.00;;;;;;5099743;28;20440;-78
2021/01/05 03:28:26;;;;;;;18.07;13.13;;;5.00;90.00;;;;;;5099007;28;21009;-78
2021/01/05 03:30:57;;;;;;;16.67;13.40;;;5.10;90.00;;;;;;5099923;28;20424;-78
2021/01/05 03:33:25;;;;;;;17.30;13.10;;;5.00;89.80;;;;;;5102664;28;20436;-79
2021/01/05 03:35:51;;;;;;;19.30;14.33;;;5.00;89.90;;;;;;5104133;28;20529;-78
2021/01/05 03:38:17;;;;;;;15.83;13.87;;;5.10;90.00;;;;;;5102576;28;20459;-78
2021/01/05 03:40:43;;;;;;;18.27;14.00;;;5.10;90.00;;;;;;5103838;28;20483;-78
2021/01/05 03:43:10;;;;;;;16.80;13.90;;;5.10;90.40;;;;;;5099117;28;20448;-78
2021/01/05 03:45:36;;;;;;;16.60;14.07;;;5.00;90.00;;;;;;5098474;28;20953;-78
2021/01/05 03:48:04;;;;;;;20.90;14.83;;;5.00;90.00;;;;;;5098747;28;20458;-78
2021/01/05 03:50:30;;;;;;;17.43;13.80;;;5.10;90.10;;;;;;5098674;28;20444;-78
2021/01/05 03:52:56;;;;;;;18.20;14.90;;;5.10;90.00;;;;;;5098787;28;20471;-78
2021/01/05 03:55:22;;;;;;;16.43;12.50;;;5.10;90.00;;;;;;5098580;28;20439;-78
2021/01/05 03:57:48;;;;;;;22.17;14.73;;;5.10;90.00;;;;;;5098539;28;20435;-78
2021/01/05 04:00:24;;;;;;;17.83;13.00;;;5.10;90.00;;;;;;5098643;28;20480;-78
2021/01/05 04:02:50;;;;;;;15.17;12.87;;;5.10;90.00;;;;;;5098326;28;20514;-78
2021/01/05 04:05:17;;;;;;;19.20;13.43;;;5.10;90.10;;;;;;5097909;28;20471;-78
2021/01/05 04:07:43;;;;;;;16.10;12.80;;;5.10;90.10;;;;;;5097902;28;20953;-78
2021/01/05 04:10:10;;;;;;;17.33;13.03;;;5.10;90.00;;;;;;5097614;28;21004;-78
2021/01/05 04:12:36;;;;;;;16.90;13.80;;;5.10;90.00;;;;;;5098097;28;20443;-77
2021/01/05 04:15:05;;;;;;;16.30;12.63;;;5.10;89.90;;;;;;5098308;28;20451;-78
2021/01/05 04:17:31;;;;;;;17.00;14.30;;;5.10;89.90;;;;;;5097427;28;20617;-78
2021/01/05 04:19:57;;;;;;;15.57;12.97;;;5.10;89.80;;;;;;5097758;28;20476;-78
2021/01/05 04:22:24;;;;;;;17.63;13.90;;;5.10;89.90;;;;;;5097849;28;20513;-78
2021/01/05 04:24:50;;;;;;;17.57;13.13;;;5.00;89.90;;;;;;5098742;28;20474;-79
2021/01/05 04:27:16;;;;;;;16.60;13.00;;;5.10;90.00;;;;;;5107356;28;20454;-79
2021/01/05 04:29:43;;;;;;;16.50;12.67;;;5.10;90.00;;;;;;5102636;28;20876;-79
2021/01/05 04:32:10;;;;;;;17.30;14.07;;;5.10;90.00;;;;;;5100522;28;20452;-79
2021/01/05 04:34:37;;;;;;;18.20;14.03;;;5.10;90.00;;;;;;5099892;28;20934;-79
2021/01/05 04:37:03;;;;;;;19.33;14.60;;;5.10;89.90;;;;;;5099858;28;20447;-78
2021/01/05 04:39:30;;;;;;;16.90;13.53;;;5.10;89.70;;;;;;5099847;28;20498;-78
2021/01/05 04:42:03;;;;;;;14.53;12.03;;;5.10;89.80;;;;;;5099682;28;20969;-78
2021/01/05 04:44:34;;;;;;;19.03;14.50;;;5.10;90.00;;;;;;5098661;28;20906;-78
2021/01/05 04:47:10;;;;;;;17.93;12.57;;;5.10;90.00;;;;;;5099313;28;20922;-78
2021/01/05 04:50:00;;;;;;;16.43;13.70;;;5.10;90.00;;;;;;5099045;28;20493;-78
2021/01/05 04:52:31;;;;;;;19.63;13.67;;;5.10;90.00;;;;;;5098616;28;20440;-78
2021/01/05 04:55:05;;;;;;;17.90;13.33;;;5.10;89.70;;;;;;5099081;28;20428;-78
2021/01/05 04:57:34;;;;;;;13.57;11.60;;;5.10;89.70;;;;;;5099117;28;20631;-78
2021/01/05 05:00:15;;;;;;;15.53;12.37;;;5.10;90.10;;;;;;5098479;28;20547;-78
2021/01/05 05:02:51;;;;;;;13.90;12.40;;;5.10;89.70;;;;;;5099401;28;20428;-79
2021/01/05 05:05:31;;;;;;;16.83;13.23;;;5.10;89.60;;;;;;5099498;28;20467;-78
2021/01/05 05:08:17;;;;;;;16.23;13.33;;;5.10;89.50;;;;;;5099844;28;20443;-79
2021/01/05 05:10:49;;;;;;;17.40;13.60;;;5.00;89.80;;;;;;5099245;28;20796;-78
2021/01/05 05:13:24;;;;;;;20.77;13.63;;;5.00;89.70;;;;;;5099961;28;20898;-78
2021/01/05 05:15:56;;;;;;;18.07;13.77;;;5.10;89.90;;;;;;5100016;28;20436;-79
2021/01/05 05:18:32;;;;;;;18.37;13.60;;;5.10;89.70;;;;;;5099864;28;20479;-79
2021/01/05 05:21:27;;;;;;;20.33;14.03;;;5.00;89.80;;;;;;5098895;28;20467;-78
2021/01/05 05:24:04;;;;;;;19.90;13.80;;;5.10;90.00;;;;;;5099825;28;20437;-78
2021/01/05 05:26:38;;;;;;;19.13;14.30;;;5.00;89.70;;;;;;5099387;28;20416;-79
2021/01/05 05:29:20;;;;;;;16.63;12.67;;;5.00;89.70;;;;;;5100805;28;20472;-79
2021/01/05 05:31:49;;;;;;;20.00;14.27;;;5.00;89.80;;;;;;5100440;28;20497;-78
2021/01/05 05:34:23;;;;;;;19.53;13.13;;;5.00;90.00;;;;;;5099503;28;20809;-79
2021/01/05 05:37:16;;;;;;;18.03;14.27;;;5.10;90.00;;;;;;5099024;28;20428;-78
2021/01/05 05:39:54;;;;;;;19.10;14.03;;;5.10;89.40;;;;;;5099123;28;20545;-78
2021/01/05 05:42:55;;;;;;;19.30;13.23;;;5.00;89.60;;;;;;5098841;28;20431;-78
2021/01/05 05:45:26;;;;;;;19.23;14.27;;;5.10;89.90;;;;;;5099461;28;20427;-77
2021/01/05 05:48:11;;;;;;;20.60;13.93;;;5.00;89.60;;;;;;5098704;28;20432;-78
2021/01/05 05:50:45;;;;;;;17.47;14.00;;;5.10;89.60;;;;;;5098780;28;20436;-78
2021/01/05 05:53:17;;;;;;;19.63;14.00;;;5.10;89.50;;;;;;5098814;28;20434;-78
2021/01/05 05:55:47;;;;;;;17.70;13.43;;;5.10;89.50;;;;;;5098051;28;20925;-78
2021/01/05 05:58:18;;;;;;;22.20;14.37;;;5.10;89.70;;;;;;5098495;28;20470;-78
2021/01/05 06:00:47;;;;;;;19.30;13.73;;;5.20;89.80;;;;;;5098907;28;20486;-79
2021/01/05 06:03:15;;;;;;;21.30;14.07;;;5.20;89.70;;;;;;5098542;28;20472;-79
2021/01/05 06:05:42;;;;;;;21.30;15.87;;;5.20;89.50;;;;;;5098811;28;20432;-78
2021/01/05 06:08:12;;;;;;;16.33;12.67;;;5.20;89.30;;;;;;5098044;28;20827;-78
2021/01/05 06:10:38;;;;;;;16.53;12.47;;;5.20;89.40;;;;;;5098548;28;20455;-78
2021/01/05 06:13:05;;;;;;;16.97;14.17;;;5.20;89.50;;;;;;5099250;28;20448;-78
2021/01/05 06:15:33;;;;;;;20.57;14.27;;;5.20;89.50;;;;;;5098873;28;20432;-79
2021/01/05 06:18:01;;;;;;;21.40;15.17;;;5.20;89.60;;;;;;5098017;28;20462;-79
2021/01/05 06:20:27;;;;;;;16.80;13.43;;;5.20;89.50;;;;;;5098733;28;20487;-79
2021/01/05 06:22:54;;;;;;;17.80;13.70;;;5.20;89.40;;;;;;5098882;28;20490;-79
2021/01/05 06:25:21;;;;;;;21.77;14.40;;;5.20;89.30;;;;;;5098793;28;20440;-78
2021/01/05 06:27:47;;;;;;;19.27;13.73;;;5.20;89.20;;;;;;5099449;28;20836;-80
2021/01/05 06:30:15;;;;;;;18.23;13.60;;;5.20;89.20;;;;;;5099428;28;20464;-80
2021/01/05 06:32:42;;;;;;;19.33;14.23;;;5.20;89.20;;;;;;5099554;28;20452;-79
2021/01/05 06:35:10;;;;;;;16.00;12.70;;;5.20;89.20;;;;;;5099181;28;20450;-80
2021/01/05 06:37:36;;;;;;;19.70;13.97;;;5.20;89.20;;;;;;5099711;28;20444;-79
2021/01/05 06:40:04;;;;;;;20.37;15.27;;;5.20;89.20;;;;;;5099081;28;20479;-80
2021/01/05 06:42:30;;;;;;;18.20;14.10;;;5.20;89.30;;;;;;5100120;28;20820;-79
2021/01/05 06:44:56;;;;;;;17.50;13.87;;;5.10;89.10;;;;;;5098857;28;20854;-80
2021/01/05 06:47:23;;;;;;;16.40;12.50;;;5.10;89.20;;;;;;5099231;28;20505;-80
2021/01/05 06:49:50;;;;;;;20.17;14.60;;;5.10;89.20;;;;;;5098461;28;20977;-79
2021/01/05 06:52:16;;;;;;;19.57;13.20;;;5.10;89.30;;;;;;5098261;28;20953;-79
2021/01/05 06:54:42;;;;;;;18.17;13.30;;;5.10;89.40;;;;;;5099349;28;20451;-79
2021/01/05 06:57:09;;;;;;;19.67;14.20;;;5.10;89.30;;;;;;5098724;28;20497;-81
2021/01/05 06:59:36;;;;;;;20.53;15.03;;;5.10;89.40;;;;;;5099587;28;20506;-81
2021/01/05 07:02:04;;;;;;;22.10;15.17;;;5.10;89.40;;;;;;5099919;28;20432;-80
2021/01/05 07:04:31;;;;;;;19.17;14.60;;;5.20;89.60;;;;;;5099074;28;20456;-79
2021/01/05 07:06:59;;;;;;;21.97;14.40;;;5.20;89.70;;;;;;5099288;28;20450;-79
2021/01/05 07:09:26;;;;;;;17.83;13.70;;;5.20;89.60;;;;;;5099327;28;20467;-80
2021/01/05 07:11:52;;;;;;;19.50;14.17;;;5.20;89.70;;;;;;5099668;28;20447;-80
2021/01/05 07:14:21;;;;;;;21.47;14.50;;;5.10;89.50;;;;;;5099218;28;20505;-80
2021/01/05 07:16:47;;;;;;;21.73;14.27;;;5.10;89.70;;;;;;5099473;28;20444;-79
2021/01/05 07:19:13;;;;;;;20.10;14.50;;;5.10;89.70;;;;;;5099383;28;20497;-79
2021/01/05 07:21:40;;;;;;;20.77;14.77;;;5.10;89.80;;;;;;5099235;28;20451;-80
2021/01/05 07:24:08;;;;;;;20.07;14.10;;;5.10;89.70;;;;;;5099351;28;20435;-80
2021/01/05 07:26:35;;;;;;;21.70;16.03;;;5.10;89.80;;;;;;5099157;28;20448;-80
2021/01/05 07:29:02;;;;;;;19.07;14.60;;;5.10;89.70;;;;;;5099362;28;20474;-80
2021/01/05 07:31:28;;;;;;;20.30;15.10;;;5.10;89.70;;;;;;5100647;28;20440;-80
2021/01/05 07:33:54;;;;;;;20.63;14.90;;;5.10;89.70;;;;;;5110606;28;20448;-80
2021/01/05 07:36:24;;;;;;;21.93;14.77;;;5.10;89.70;;;;;;5105481;28;20448;-80
2021/01/05 07:38:51;;;;;;;19.33;14.57;;;5.10;89.90;;;;;;5099574;28;20494;-80
2021/01/05 07:41:18;;;;;;;20.00;14.37;;;5.10;89.90;;;;;;5099559;28;20486;-80
2021/01/05 07:43:45;;;;;;;23.57;15.60;;;5.10;90.00;;;;;;5098932;28;20455;-80
2021/01/05 07:46:11;;;;;;;20.23;14.40;;;5.10;89.90;;;;;;5098602;28;20451;-80
2021/01/05 07:48:37;;;;;;;22.43;15.37;;;5.10;90.00;;;;;;5099163;28;20472;-79
2021/01/05 07:51:05;;;;;;;22.73;13.00;;;5.10;90.00;;;;;;5098266;28;20938;-79
2021/01/05 07:53:32;;;;;;;23.63;15.33;;;5.10;90.00;;;;;;5097503;28;20454;-80
2021/01/05 07:55:58;;;;;;;20.90;13.90;;;5.20;90.00;;;;;;5097968;28;20432;-79
2021/01/05 07:58:25;;;;;;;20.90;14.70;;;5.20;90.00;;;;;;5098416;28;20472;-80
2021/01/05 08:00:51;;;;;;;21.20;14.73;;;5.20;90.00;;;;;;5098270;28;20472;-79
2021/01/05 08:03:18;;;;;;;23.37;15.60;;;5.20;90.00;;;;;;5098342;28;20447;-80
2021/01/05 08:05:44;;;;;;;20.70;14.50;;;5.20;89.80;;;;;;5098920;28;20436;-81
2021/01/05 08:08:10;;;;;;;19.37;14.00;;;5.20;89.80;;;;;;5098447;28;20501;-79
2021/01/05 08:10:38;;;;;;;22.90;15.40;;;5.20;90.00;;;;;;5098624;28;20440;-79
2021/01/05 08:13:07;;;;;;;22.10;15.17;;;5.20;89.90;;;;;;5097791;28;20440;-79
2021/01/05 08:15:35;;;;;;;21.87;14.27;;;5.20;89.90;;;;;;5098793;28;20427;-80
2021/01/05 08:18:03;;;;;;;19.40;12.93;;;5.30;90.00;;;;;;5098509;28;20443;-79
2021/01/05 08:20:31;;;;;;;21.97;15.30;;;5.30;90.00;;;;;;5102437;28;20475;-79
2021/01/05 08:22:59;;;;;;;22.80;15.00;;;5.30;90.00;;;;;;5103057;28;20531;-79
2021/01/05 08:25:26;;;;;;;23.70;17.10;;;5.30;90.00;;;;;;5103667;28;20451;-80
2021/01/05 08:27:53;;;;;;;25.13;16.50;;;5.30;90.00;;;;;;5104235;28;20530;-79
2021/01/05 08:30:22;;;;;;;23.37;15.97;;;5.40;90.00;;;;;;5102850;28;20448;-80
2021/01/05 08:32:49;;;;;;;20.80;14.30;;;5.40;90.00;;;;;;5103125;28;20447;-80
2021/01/05 08:35:17;;;;;;;21.37;15.10;;;5.40;89.80;;;;;;5103207;28;20787;-79
2021/01/05 08:37:43;;;;;;;22.13;14.17;;;5.40;89.50;;;;;;5102169;28;20459;-79
2021/01/05 08:40:12;;;;;;;23.57;14.93;;;5.40;89.40;;;;;;5102586;28;20486;-80
2021/01/05 08:42:38;;;;;;;25.10;16.80;;;5.40;89.50;;;;;;5103550;28;20501;-79
2021/01/05 08:45:06;;;;;;;26.70;16.50;;;5.40;89.60;;;;;;5102382;28;20448;-79
2021/01/05 08:47:32;;;;;;;25.00;15.07;;;5.50;89.50;;;;;;5103205;28;20459;-80
2021/01/05 08:50:00;;;;;;;20.13;14.60;;;5.50;89.40;;;;;;5103227;28;20467;-80
2021/01/05 08:52:27;;;;;;;22.13;16.17;;;5.50;89.30;;;;;;5102891;28;20448;-79
2021/01/05 08:54:53;;;;;;;20.37;13.93;;;5.50;89.30;;;;;;5102064;28;20447;-79
2021/01/05 08:57:19;;;;;;;25.17;15.20;;;5.50;89.40;;;;;;5101651;28;20428;-79
2021/01/05 08:59:47;;;;;;;22.97;15.77;;;5.50;89.10;;;;;;5099998;28;20475;-79
2021/01/05 09:02:13;;;;;;;21.63;15.20;;;5.60;89.20;;;;;;5100368;28;20979;-79
2021/01/05 09:04:39;;;;;;;21.00;15.67;;;5.60;89.20;;;;;;5099232;28;20524;-79
2021/01/05 09:07:07;;;;;;;22.47;14.83;;;5.60;89.10;;;;;;5100159;28;20435;-79
2021/01/05 09:09:33;;;;;;;20.73;14.50;;;5.60;89.00;;;;;;5099542;28;20455;-79
2021/01/05 09:11:59;;;;;;;21.70;14.30;;;5.60;88.80;;;;;;5100394;28;20436;-79
2021/01/05 09:14:26;;;;;;;22.83;14.63;;;5.60;88.80;;;;;;5099626;28;20926;-78
2021/01/05 09:16:57;;;;;;;20.60;14.80;;;5.60;88.60;;;;;;5099923;28;20428;-79
2021/01/05 09:19:23;;;;;;;19.70;13.73;;;5.60;88.60;;;;;;5099215;28;20479;-80
2021/01/05 09:21:49;;;;;;;19.47;14.30;;;5.60;88.40;;;;;;5099844;28;20477;-79
2021/01/05 09:24:17;;;;;;;23.90;16.40;;;5.60;88.30;;;;;;5099767;28;20429;-79
2021/01/05 09:26:43;;;;;;;26.17;17.40;;;5.60;88.40;;;;;;5099360;28;20486;-80
2021/01/05 09:29:12;;;;;;;24.20;17.10;;;5.60;88.70;;;;;;5099268;28;20497;-80
2021/01/05 09:31:42;;;;;;;28.47;20.57;;;5.50;88.60;;;;;;5099562;28;20451;-80
2021/01/05 09:34:08;;;;;;;27.50;18.43;;;5.60;88.80;;;;;;5099306;28;20817;-78
2021/01/05 09:36:35;;;;;;;20.87;14.70;;;5.60;88.60;;;;;;5095538;28;20956;-78
2021/01/05 09:39:04;;;;;;;20.30;14.83;;;5.50;88.60;;;;;;5096196;28;20478;-78
2021/01/05 09:41:36;;;;;;;19.60;14.97;;;5.60;88.80;;;;;;5095487;28;20483;-78
2021/01/05 09:44:03;;;;;;;22.10;16.20;;;5.60;88.80;;;;;;5096080;28;20767;-79
2021/01/05 09:46:29;;;;;;;20.13;13.30;;;5.60;88.90;;;;;;5097067;28;20447;-78
2021/01/05 09:48:55;;;;;;;22.13;15.37;;;5.60;89.00;;;;;;5097312;28;20468;-78
2021/01/05 09:51:23;;;;;;;22.47;16.43;;;5.60;88.90;;;;;;5097415;28;20448;-78
2021/01/05 09:53:50;;;;;;;21.33;14.90;;;5.60;88.70;;;;;;5096798;28;20436;-78
2021/01/05 09:56:16;;;;;;;22.47;16.23;;;5.60;88.60;;;;;;5096469;28;20456;-78
2021/01/05 09:58:43;;;;;;;19.67;15.40;;;5.70;88.90;;;;;;5097080;28;20468;-78
2021/01/05 10:01:10;;;;;;;27.17;17.27;;;5.70;88.80;;;;;;5096967;28;20488;-79
2021/01/05 10:03:36;;;;;;;25.37;17.70;;;5.60;88.40;;;;;;5097293;28;20463;-79
2021/01/05 10:06:02;;;;;;;21.77;15.03;;;5.70;88.50;;;;;;5096781;28;20517;-79
2021/01/05 10:08:29;;;;;;;26.57;15.27;;;5.70;88.50;;;;;;5096058;28;20456;-78
2021/01/05 10:10:55;;;;;;;23.00;15.80;;;5.70;88.50;;;;;;5096802;28;20424;-78
2021/01/05 10:13:21;;;;;;;23.90;16.20;;;5.70;88.50;;;;;;5096650;28;20455;-78
2021/01/05 10:15:48;;;;;;;23.63;16.67;;;5.80;88.60;;;;;;5095668;28;20447;-78
2021/01/05 10:18:15;;;;;;;21.67;16.20;;;5.80;88.60;;;;;;5095976;28;20423;-78
2021/01/05 10:20:41;;;;;;;22.73;15.40;;;5.80;88.60;;;;;;5096157;28;20475;-78
2021/01/05 10:23:07;;;;;;;23.00;15.60;;;5.80;88.50;;;;;;5095775;28;20446;-78
2021/01/05 10:25:34;;;;;;;22.97;15.70;;;5.80;88.20;;;;;;5096251;28;20447;-78
2021/01/05 10:28:00;;;;;;;22.20;16.20;;;5.80;88.00;;;;;;5095562;28;20448;-78
2021/01/05 10:30:26;;;;;;;25.30;17.30;;;5.80;88.10;;;;;;5096264;28;20448;-78
2021/01/05 10:32:53;;;;;;;22.73;15.97;;;5.80;87.60;;;;;;5095517;28;20482;-78
2021/01/05 10:35:21;;;;;;;23.83;16.37;;;5.80;87.70;;;;;;5095138;28;20428;-78
2021/01/05 10:37:48;;;;;;;21.47;14.80;;;5.80;88.00;;;;;;5095579;28;20447;-79
2021/01/05 10:40:16;;;;;;;20.30;14.80;;;5.70;88.00;;;;;;5096148;28;20488;-79
2021/01/05 10:42:44;;;;;;;20.03;14.90;;;5.80;88.10;;;;;;5096021;28;20454;-79
2021/01/05 10:45:13;;;;;;;21.27;15.20;;;5.80;88.30;;;;;;5097149;28;20424;-79
2021/01/05 10:47:39;;;;;;;25.27;17.33;;;5.80;88.20;;;;;;5097047;28;20813;-79
2021/01/05 10:50:08;;;;;;;22.57;17.83;;;5.80;88.20;;;;;;5096938;28;21016;-79
2021/01/05 10:52:34;;;;;;;21.43;14.87;;;5.80;88.00;;;;;;5096740;28;20519;-79
2021/01/05 10:55:01;;;;;;;22.57;14.67;;;5.80;87.80;;;;;;5096855;28;20432;-80
2021/01/05 10:57:27;;;;;;;25.67;15.23;;;5.90;87.50;;;;;;5097226;28;20452;-79
2021/01/05 10:59:53;;;;;;;23.17;16.43;;;5.90;88.10;;;;;;5096655;28;20483;-79
2021/01/05 11:02:19;;;;;;;23.03;15.20;;;6.00;87.50;;;;;;5095947;28;20432;-78
2021/01/05 11:04:46;;;;;;;20.03;14.60;;;6.00;87.50;;;;;;5095736;28;20467;-79
2021/01/05 11:07:16;;;;;;;22.90;16.27;;;6.00;87.50;;;;;;5096570;28;20544;-78
2021/01/05 11:09:42;;;;;;;24.27;17.03;;;6.00;87.60;;;;;;5095828;28;20989;-79
2021/01/05 11:12:11;;;;;;;20.00;15.30;;;6.00;87.80;;;;;;5095919;28;20448;-79
2021/01/05 11:14:38;;;;;;;23.60;15.73;;;6.10;87.70;;;;;;5095690;28;20432;-79
2021/01/05 11:17:04;;;;;;;22.33;15.87;;;6.10;87.50;;;;;;5097075;28;20448;-80
2021/01/05 11:19:31;;;;;;;24.63;17.53;;;6.10;87.10;;;;;;5097003;28;20467;-79
2021/01/05 11:21:59;;;;;;;24.40;16.07;;;6.10;87.00;;;;;;5098002;28;20454;-79
2021/01/05 11:24:28;;;;;;;25.10;16.47;;;6.20;87.00;;;;;;5097475;28;20465;-79
2021/01/05 11:26:55;;;;;;;26.30;17.50;;;6.20;86.90;;;;;;5097990;28;20428;-79
2021/01/05 11:29:22;;;;;;;25.07;17.23;;;6.20;86.90;;;;;;5098803;28;20970;-80
2021/01/05 11:31:54;;;;;;;28.43;18.47;;;6.20;86.90;;;;;;5099249;28;20448;-80
2021/01/05 11:34:20;;;;;;;30.10;21.00;;;6.30;87.00;;;;;;5100788;28;20436;-79
2021/01/05 11:36:46;;;;;;;25.07;17.70;;;6.30;86.90;;;;;;5099174;28;20493;-80
2021/01/05 11:39:14;;;;;;;34.33;21.33;;;6.30;86.70;;;;;;5099264;28;20463;-80
2021/01/05 11:41:45;;;;;;;32.50;19.70;;;6.40;86.70;;;;;;5099213;28;20472;-79
2021/01/05 11:44:12;;;;;;;30.47;20.20;;;6.40;86.60;;;;;;5098283;28;20428;-80
2021/01/05 11:46:39;;;;;;;30.60;21.07;;;6.40;86.40;;;;;;5098793;28;20452;-80
2021/01/05 11:49:05;;;;;;;32.97;20.20;;;6.40;86.20;;;;;;5098984;28;20483;-80
2021/01/05 11:51:33;;;;;;;31.27;19.07;;;6.50;86.30;;;;;;5099216;28;20416;-80
2021/01/05 11:54:00;;;;;;;26.50;18.60;;;6.50;85.70;;;;;;5099018;28;20432;-79
2021/01/05 11:56:27;;;;;;;25.43;18.90;;;6.40;85.80;;;;;;5103090;28;20970;-79
2021/01/05 11:58:55;;;;;;;24.70;17.40;;;6.40;86.00;;;;;;5101851;28;20837;-79
2021/01/05 12:01:23;;;;;;;28.90;20.83;;;6.30;85.80;;;;;;5101243;28;20471;-80
2021/01/05 12:03:49;;;;;;;27.43;19.07;;;6.30;86.00;;;;;;5100089;28;20509;-79
2021/01/05 12:06:18;;;;;;;25.20;18.60;;;6.30;86.30;;;;;;5100430;28;20451;-79
2021/01/05 12:08:44;;;;;;;27.53;17.67;;;6.30;86.40;;;;;;5100566;28;20471;-78
2021/01/05 12:11:17;;;;;;;26.17;19.23;;;6.30;86.50;;;;;;5100572;28;20833;-78
2021/01/05 12:13:43;;;;;;;31.10;20.10;;;6.20;86.60;;;;;;5099880;28;20436;-79
2021/01/05 12:16:10;;;;;;;30.07;17.60;;;6.20;86.80;;;;;;5100098;28;20482;-79
2021/01/05 12:18:37;;;;;;;34.13;20.20;;;6.20;86.70;;;;;;5099604;28;20894;-79
2021/01/05 12:21:04;;;;;;;31.13;20.43;;;6.10;86.60;;;;;;5100027;28;20529;-79
2021/01/05 12:23:31;;;;;;;27.90;18.27;;;6.10;86.80;;;;;;5101707;28;20432;-80
2021/01/05 12:25:57;;;;;;;29.93;19.40;;;6.10;86.80;;;;;;5101406;28;20451;-79
2021/01/05 12:28:23;;;;;;;32.40;20.73;;;6.10;86.80;;;;;;5100474;28;20486;-79
2021/01/05 12:30:49;;;;;;;29.30;20.93;;;6.00;86.90;;;;;;5100743;28;20447;-79
2021/01/05 12:33:16;;;;;;;32.27;20.50;;;6.00;87.30;;;;;;5100363;28;20443;-79
2021/01/05 12:35:43;;;;;;;31.53;19.43;;;6.00;87.60;;;;;;5100840;28;20440;-79
2021/01/05 12:38:10;;;;;;;26.67;18.73;;;6.00;87.50;;;;;;5102787;28;20412;-79
2021/01/05 12:40:36;;;;;;;27.53;19.70;;;6.00;87.50;;;;;;5100172;28;20992;-79
2021/01/05 12:43:03;;;;;;;29.67;18.43;;;6.00;87.70;;;;;;5099808;28;20953;-79
2021/01/05 12:45:29;;;;;;;30.23;17.87;;;6.00;87.90;;;;;;5100436;28;20448;-80
2021/01/05 12:47:55;;;;;;;26.83;18.07;;;6.00;87.80;;;;;;5100354;28;20810;-79